Erding Airport ETSE

Flugplatz Daten

Name: Erding Airport

Ident: ETSE

Lat: 48,32229996

Long: 11,94869995

Platzhöhe: 1515 ft

IataCode:

City:

Metar

2017/12/18 22:50
MMTC 182250Z 36005KT 10SM SCT025TCU BKN100 BKN250 22/11 A3002 RMK 8/273 CB VC N NETSE45 ISOL SC

Taf

Gewünschte Webcam nicht vorhanden? Dann fügen Sie eine hinzu. Sie wird dann so schnell wie möglich freigeschaltet
Url: Title: